createdAt,value
2018-02-12T00:01:36.539Z,4.00
2018-02-12T00:04:04.023Z,4.72
2018-02-12T00:06:31.493Z,4.50
2018-02-12T00:08:58.974Z,4.68
2018-02-12T00:11:26.452Z,5.03
2018-02-12T00:13:53.958Z,6.03
2018-02-12T00:16:21.440Z,5.28
2018-02-12T00:18:49.027Z,5.12
2018-02-12T00:21:16.908Z,5.53
2018-02-12T00:23:44.800Z,6.80
2018-02-12T00:26:12.339Z,6.40
2018-02-12T00:28:39.831Z,6.80
2018-02-12T00:31:07.703Z,6.93
2018-02-12T00:33:35.588Z,6.68
2018-02-12T00:36:03.475Z,7.57
2018-02-12T00:38:31.015Z,6.72
2018-02-12T00:40:58.517Z,8.70
2018-02-12T00:43:26.058Z,7.20
2018-02-12T00:45:53.640Z,7.90
2018-02-12T00:48:21.124Z,9.05
2018-02-12T00:50:49.020Z,7.97
2018-02-12T00:53:16.504Z,9.75
2018-02-12T00:55:43.994Z,7.70
2018-02-12T00:58:11.495Z,8.45
2018-02-12T01:00:38.986Z,9.63
2018-02-12T01:03:06.948Z,9.82
2018-02-12T01:05:34.443Z,9.40
2018-02-12T01:08:02.319Z,10.70
2018-02-12T01:10:30.316Z,11.65
2018-02-12T01:12:57.856Z,11.65
2018-02-12T01:15:25.357Z,11.43
2018-02-12T01:17:52.845Z,10.90
2018-02-12T01:20:20.344Z,10.93
2018-02-12T01:22:47.827Z,11.15
2018-02-12T01:25:15.407Z,10.73
2018-02-12T01:27:42.996Z,12.90
2018-02-12T01:30:10.997Z,13.45
2018-02-12T01:32:38.470Z,14.27
2018-02-12T01:35:05.968Z,13.80
2018-02-12T01:37:33.442Z,13.57
2018-02-12T01:40:00.940Z,15.45
2018-02-12T01:42:28.419Z,16.00
2018-02-12T01:44:55.915Z,15.48
2018-02-12T01:47:23.394Z,15.43
2018-02-12T01:52:57.072Z,15.90
2018-02-12T01:55:24.571Z,17.73
2018-02-12T01:57:52.051Z,17.80
2018-02-12T02:00:19.696Z,17.27
2018-02-12T02:02:47.183Z,17.48
2018-02-12T02:05:14.684Z,17.50
2018-02-12T02:07:42.563Z,17.20
2018-02-12T02:10:10.460Z,17.40
2018-02-12T02:12:37.934Z,17.55
2018-02-12T02:15:05.435Z,17.98
2018-02-12T02:17:32.920Z,19.25
2018-02-12T02:20:00.412Z,18.52
2018-02-12T02:22:28.391Z,18.85
2018-02-12T02:24:56.271Z,18.90
2018-02-12T02:27:23.780Z,18.10
2018-02-12T02:29:51.311Z,17.00
2018-02-12T02:32:18.808Z,17.52
2018-02-12T02:34:46.352Z,20.12
2018-02-12T02:37:13.849Z,18.33
2018-02-12T02:39:41.328Z,18.33
2018-02-12T02:42:08.832Z,18.02
2018-02-12T02:44:36.312Z,18.52
2018-02-12T02:47:03.807Z,16.50
2018-02-12T02:49:31.289Z,17.25
2018-02-12T02:51:59.255Z,17.65
2018-02-12T02:54:26.983Z,17.80
2018-02-12T02:56:54.484Z,16.40
2018-02-12T02:59:21.962Z,15.05
2018-02-12T03:01:49.460Z,15.93
2018-02-12T03:04:17.340Z,15.93
2018-02-12T03:06:45.302Z,16.75
2018-02-12T03:09:12.783Z,16.52
2018-02-12T03:11:40.760Z,15.88
2018-02-12T03:14:08.744Z,16.70
2018-02-12T03:16:36.640Z,15.95
2018-02-12T03:19:04.521Z,17.08
2018-02-12T03:21:32.023Z,15.20
2018-02-12T03:23:59.494Z,16.10
2018-02-12T03:26:26.996Z,15.63
2018-02-12T03:28:54.583Z,17.00
2018-02-12T03:31:22.088Z,16.37
2018-02-12T03:33:49.558Z,17.17
2018-02-12T03:36:17.063Z,15.98
2018-02-12T03:38:44.547Z,17.55
2018-02-12T03:41:12.048Z,16.20
2018-02-12T03:43:39.924Z,16.60
2018-02-12T03:46:08.792Z,17.20
2018-02-12T03:48:36.271Z,17.33
2018-02-12T03:51:03.751Z,16.67
2018-02-12T03:53:31.252Z,17.85
2018-02-12T03:55:58.740Z,17.23
2018-02-12T03:58:26.235Z,16.70
2018-02-12T04:00:53.716Z,17.52
2018-02-12T04:03:21.207Z,17.35
2018-02-12T04:05:48.783Z,16.85
2018-02-12T04:08:16.292Z,17.33
2018-02-12T04:10:43.767Z,17.05
2018-02-12T04:13:11.291Z,17.33
2018-02-12T04:15:38.785Z,17.58
2018-02-12T04:18:06.748Z,16.85
2018-02-12T04:20:34.319Z,16.48
2018-02-12T04:23:01.882Z,17.83
2018-02-12T04:25:29.464Z,15.60
2018-02-12T04:27:57.084Z,16.48
2018-02-12T04:30:24.565Z,15.65
2018-02-12T04:32:52.059Z,14.85
2018-02-12T04:35:19.534Z,14.23
2018-02-12T04:37:47.030Z,17.45
2018-02-12T04:40:14.911Z,15.38
2018-02-12T04:42:42.804Z,14.82
2018-02-12T04:45:10.291Z,14.10
2018-02-12T04:47:37.820Z,15.43
2018-02-12T04:50:05.803Z,13.98
2018-02-12T04:52:33.299Z,12.88
2018-02-12T04:55:00.839Z,12.63
2018-02-12T04:57:28.340Z,13.00
2018-02-12T04:59:55.820Z,12.82
2018-02-12T05:02:23.311Z,12.98
2018-02-12T05:04:50.821Z,12.65
2018-02-12T05:07:18.426Z,12.65
2018-02-12T05:09:45.912Z,13.32
2018-02-12T05:12:13.435Z,12.82
2018-02-12T05:14:41.013Z,12.60
2018-02-12T05:17:08.900Z,12.65
2018-02-12T05:19:36.875Z,12.35
2018-02-12T05:22:04.360Z,12.73
2018-02-12T05:24:32.250Z,13.68
2018-02-12T05:26:59.731Z,12.50
2018-02-12T05:29:27.227Z,11.57
2018-02-12T05:31:54.707Z,11.85
2018-02-12T05:34:22.198Z,13.20
2018-02-12T05:36:49.674Z,14.13
2018-02-12T05:39:17.176Z,12.18
2018-02-12T05:41:44.719Z,12.48
2018-02-12T05:44:12.620Z,11.63
2018-02-12T05:46:40.112Z,11.05
2018-02-12T05:49:07.615Z,11.40
2018-02-12T05:51:35.104Z,10.68
2018-02-12T05:54:02.604Z,12.65
2018-02-12T05:56:30.096Z,11.95
2018-02-12T05:58:57.599Z,11.27
2018-02-12T06:01:25.080Z,11.05
2018-02-12T06:03:52.580Z,12.13
2018-02-12T06:06:20.450Z,10.70
2018-02-12T06:08:48.414Z,11.50
2018-02-12T06:11:15.901Z,10.82
2018-02-12T06:13:43.876Z,11.00
2018-02-12T06:16:11.756Z,11.75
2018-02-12T06:18:39.730Z,13.35
2018-02-12T06:21:07.211Z,13.25
2018-02-12T06:23:35.183Z,13.10
2018-02-12T06:26:02.658Z,12.30
2018-02-12T06:28:30.259Z,12.27
2018-02-12T06:30:57.742Z,12.57
2018-02-12T06:33:25.239Z,11.73
2018-02-12T06:35:52.719Z,11.60
2018-02-12T06:38:20.215Z,11.23
2018-02-12T06:40:47.707Z,13.45
2018-02-12T06:43:15.264Z,12.82
2018-02-12T06:45:43.161Z,12.27
2018-02-12T06:48:10.640Z,12.15
2018-02-12T06:50:38.130Z,12.95
2018-02-12T06:53:05.612Z,12.93
2018-02-12T06:55:33.102Z,12.95
2018-02-12T06:58:00.588Z,12.88
2018-02-12T07:00:28.159Z,12.35
2018-02-12T07:02:55.642Z,12.98
2018-02-12T07:05:23.533Z,13.57
2018-02-12T07:07:51.015Z,12.93
2018-02-12T07:10:18.556Z,13.75
2018-02-12T07:12:46.435Z,11.82
2018-02-12T07:15:14.332Z,12.32
2018-02-12T07:17:42.216Z,12.20
2018-02-12T07:20:09.720Z,11.77
2018-02-12T07:22:37.200Z,11.95
2018-02-12T07:25:04.700Z,13.15
2018-02-12T07:27:32.177Z,12.05
2018-02-12T07:30:00.096Z,12.40
2018-02-12T07:32:27.579Z,11.45
2018-02-12T07:34:55.085Z,11.93
2018-02-12T07:37:22.590Z,11.55
2018-02-12T07:39:50.088Z,11.02
2018-02-12T07:42:17.572Z,11.55
2018-02-12T07:44:45.072Z,11.30
2018-02-12T07:47:12.556Z,10.65
2018-02-12T07:49:40.456Z,11.35
2018-02-12T07:52:07.939Z,10.32
2018-02-12T07:54:35.427Z,11.30
2018-02-12T07:57:02.920Z,10.43
2018-02-12T07:59:30.417Z,9.25
2018-02-12T08:01:58.404Z,10.25
2018-02-12T08:04:26.291Z,10.40
2018-02-12T08:06:54.195Z,10.27
2018-02-12T08:09:21.670Z,10.50
2018-02-12T08:11:49.167Z,9.93
2018-02-12T08:14:16.652Z,11.52
2018-02-12T08:16:44.160Z,10.68
2018-02-12T08:19:11.641Z,10.07
2018-02-12T08:21:39.140Z,10.68
2018-02-12T08:24:06.627Z,10.50
2018-02-12T08:26:34.114Z,10.32
2018-02-12T08:29:01.599Z,10.77
2018-02-12T08:31:29.491Z,11.12
2018-02-12T08:33:57.036Z,9.02
2018-02-12T08:36:24.527Z,10.32
2018-02-12T08:38:52.104Z,9.65
2018-02-12T08:41:19.604Z,8.80
2018-02-12T08:43:47.080Z,9.52
2018-02-12T08:46:14.581Z,8.93
2018-02-12T08:48:42.161Z,8.82
2018-02-12T08:51:09.650Z,8.38
2018-02-12T08:53:37.528Z,7.45
2018-02-12T08:56:05.419Z,7.62
2018-02-12T08:58:32.968Z,8.75
2018-02-12T09:01:00.865Z,7.62
2018-02-12T09:03:28.731Z,7.37
2018-02-12T09:05:56.624Z,8.05
2018-02-12T09:08:24.490Z,6.97
2018-02-12T09:10:52.427Z,7.43
2018-02-12T09:13:19.927Z,6.68
2018-02-12T09:15:47.429Z,6.40
2018-02-12T09:18:14.909Z,7.03
2018-02-12T09:20:42.413Z,7.18
2018-02-12T09:23:09.896Z,6.43
2018-02-12T09:25:37.386Z,8.70
2018-02-12T09:28:04.960Z,7.00
2018-02-12T09:30:32.937Z,6.87
2018-02-12T09:33:00.420Z,6.35
2018-02-12T09:35:28.392Z,7.15
2018-02-12T09:37:55.896Z,8.10
2018-02-12T09:40:23.430Z,7.12
2018-02-12T09:42:50.929Z,7.32
2018-02-12T09:45:18.408Z,5.68
2018-02-12T09:47:45.903Z,6.65
2018-02-12T09:50:13.375Z,6.60
2018-02-12T09:52:40.908Z,6.50
2018-02-12T09:55:08.783Z,6.53
2018-02-12T09:57:36.677Z,7.00
2018-02-12T10:00:04.160Z,7.12
2018-02-12T10:02:31.659Z,10.68
2018-02-12T10:04:59.139Z,9.18
2018-02-12T10:07:26.635Z,6.20
2018-02-12T10:09:54.634Z,15.35
2018-02-12T10:12:22.180Z,8.10
2018-02-12T10:14:49.663Z,6.40
2018-02-12T10:17:17.635Z,6.95
2018-02-12T10:19:45.511Z,6.03
2018-02-12T10:22:13.080Z,6.30
2018-02-12T10:24:40.661Z,6.85
2018-02-12T10:27:08.556Z,7.55
2018-02-12T10:29:36.056Z,31.98
2018-02-12T10:32:03.556Z,7.82
2018-02-12T10:34:31.028Z,8.93
2018-02-12T10:36:58.518Z,8.55
2018-02-12T10:39:26.491Z,6.47
2018-02-12T10:41:53.978Z,6.18
2018-02-12T10:44:21.850Z,6.15
2018-02-12T10:46:49.434Z,5.62
2018-02-12T10:49:17.332Z,6.05
2018-02-12T10:51:44.862Z,5.50
2018-02-12T10:54:12.345Z,5.55
2018-02-12T10:56:40.268Z,5.50
2018-02-12T10:59:07.725Z,4.50
2018-02-12T11:01:35.219Z,6.65
2018-02-12T11:04:02.696Z,5.22
2018-02-12T11:06:30.258Z,6.03
2018-02-12T11:08:57.751Z,8.00
2018-02-12T11:11:25.388Z,8.35
2018-02-12T11:13:52.883Z,5.90
2018-02-12T11:16:20.411Z,4.70
2018-02-12T11:18:48.299Z,4.85
2018-02-12T11:21:15.868Z,5.75
2018-02-12T11:23:43.411Z,5.45
2018-02-12T11:26:10.895Z,4.55
2018-02-12T11:28:38.461Z,4.78
2018-02-12T11:31:06.439Z,6.95
2018-02-12T11:33:34.468Z,5.97
2018-02-12T11:36:01.958Z,7.15
2018-02-12T11:38:29.447Z,5.65
2018-02-12T11:40:56.924Z,5.62
2018-02-12T11:43:24.508Z,4.53
2018-02-12T11:45:52.374Z,5.20
2018-02-12T11:48:19.898Z,4.62
2018-02-12T11:50:47.412Z,5.68
2018-02-12T11:53:14.904Z,4.75
2018-02-12T11:55:42.433Z,5.70
2018-02-12T11:58:09.919Z,4.20
2018-02-12T12:00:37.403Z,13.75
2018-02-12T12:03:04.909Z,5.47
2018-02-12T12:05:32.389Z,5.87
2018-02-12T12:07:59.932Z,7.68
2018-02-12T12:10:27.840Z,5.70
2018-02-12T12:12:55.332Z,5.20
2018-02-12T12:15:22.806Z,4.80
2018-02-12T12:17:50.294Z,4.65
2018-02-12T12:20:17.772Z,4.20
2018-02-12T12:22:45.273Z,4.75
2018-02-12T12:25:13.144Z,4.12
2018-02-12T12:27:41.027Z,3.95
2018-02-12T12:30:08.905Z,3.55
2018-02-12T12:32:36.800Z,4.53
2018-02-12T12:35:04.294Z,3.58
2018-02-12T12:37:31.773Z,3.62
2018-02-12T12:39:59.258Z,3.55
2018-02-12T12:42:26.778Z,3.85
2018-02-12T12:44:54.340Z,4.10
2018-02-12T12:47:22.276Z,5.12
2018-02-12T12:49:49.767Z,4.15
2018-02-12T12:52:17.248Z,3.42
2018-02-12T12:54:44.747Z,3.97
2018-02-12T12:57:12.328Z,4.47
2018-02-12T12:59:39.863Z,3.37
2018-02-12T13:02:07.440Z,4.18
2018-02-12T13:04:35.323Z,4.93
2018-02-12T13:07:03.240Z,3.67
2018-02-12T13:09:30.739Z,3.85
2018-02-12T13:11:58.231Z,3.60
2018-02-12T13:14:25.719Z,3.47
2018-02-12T13:16:53.670Z,4.12
2018-02-12T13:19:21.181Z,3.62
2018-02-12T13:21:48.660Z,3.08
2018-02-12T13:24:16.142Z,3.17
2018-02-12T13:26:43.912Z,4.15
2018-02-12T13:29:11.399Z,3.00
2018-02-12T13:31:38.992Z,3.50
2018-02-12T13:34:06.495Z,3.70
2018-02-12T13:36:34.412Z,3.90
2018-02-12T13:39:01.904Z,4.53
2018-02-12T13:41:29.456Z,3.47
2018-02-12T13:43:56.957Z,3.45
2018-02-12T13:46:24.595Z,3.95
2018-02-12T13:48:52.128Z,2.90
2018-02-12T13:51:19.611Z,3.87
2018-02-12T13:53:47.495Z,3.35
2018-02-12T13:56:15.458Z,3.40
2018-02-12T13:58:42.926Z,4.18
2018-02-12T14:01:10.429Z,3.50
2018-02-12T14:03:37.912Z,3.78
2018-02-12T14:06:05.404Z,3.62
2018-02-12T14:08:32.880Z,3.85
2018-02-12T14:11:00.375Z,4.10
2018-02-12T14:13:27.852Z,3.47
2018-02-12T14:15:55.334Z,3.87
2018-02-12T14:18:23.211Z,4.53
2018-02-12T14:20:51.115Z,4.00
2018-02-12T14:23:18.592Z,3.67
2018-02-12T14:25:46.088Z,3.47
2018-02-12T14:28:13.564Z,3.60
2018-02-12T14:30:41.069Z,16.60
2018-02-12T14:33:08.946Z,4.00
2018-02-12T14:35:36.844Z,6.55
2018-02-12T14:38:04.720Z,3.33
2018-02-12T14:40:32.604Z,4.28
2018-02-12T14:43:00.075Z,3.95
2018-02-12T14:45:27.563Z,4.37
2018-02-12T14:47:55.040Z,4.15
2018-02-12T14:50:22.536Z,4.60
2018-02-12T14:52:50.003Z,4.55
2018-02-12T14:55:17.496Z,4.65
2018-02-12T14:57:44.975Z,4.40
2018-02-12T15:00:12.868Z,4.47
2018-02-12T15:02:40.753Z,4.87
2018-02-12T15:05:08.716Z,4.60
2018-02-12T15:07:36.190Z,4.85
2018-02-12T15:10:04.092Z,5.00
2018-02-12T15:12:31.571Z,4.00
2018-02-12T15:14:59.073Z,4.05
2018-02-12T15:17:26.550Z,3.75
2018-02-12T15:19:54.038Z,4.68
2018-02-12T15:22:21.520Z,3.80
2018-02-12T15:24:49.425Z,5.07
2018-02-12T15:27:16.904Z,5.20
2018-02-12T15:29:44.388Z,6.40
2018-02-12T15:32:11.879Z,6.72
2018-02-12T15:34:39.368Z,6.80
2018-02-12T15:37:06.860Z,3.92
2018-02-12T15:39:34.828Z,6.25
2018-02-12T15:42:02.314Z,6.65
2018-02-12T15:44:30.183Z,4.90
2018-02-12T15:46:58.072Z,5.47
2018-02-12T15:49:26.040Z,5.12
2018-02-12T15:51:53.535Z,4.95
2018-02-12T15:54:21.080Z,6.60
2018-02-12T15:56:48.571Z,6.20
2018-02-12T15:59:16.444Z,6.20
2018-02-12T16:01:44.340Z,7.25
2018-02-12T16:04:11.814Z,8.32
2018-02-12T16:06:39.316Z,10.15
2018-02-12T16:09:06.800Z,10.50
2018-02-12T16:11:34.299Z,9.25
2018-02-12T16:14:02.176Z,9.18
2018-02-12T16:16:30.068Z,11.70
2018-02-12T16:18:58.031Z,9.23
2018-02-12T16:21:25.528Z,9.32
2018-02-12T16:23:53.085Z,8.20
2018-02-12T16:26:21.060Z,10.07
2018-02-12T16:28:48.552Z,7.28
2018-02-12T16:31:16.537Z,9.18
2018-02-12T16:33:44.016Z,13.43
2018-02-12T16:36:11.553Z,13.93
2018-02-12T16:38:39.035Z,11.60
2018-02-12T16:41:06.918Z,9.68
2018-02-12T16:43:34.884Z,7.45
2018-02-12T16:46:02.420Z,6.32
2018-02-12T16:48:29.905Z,9.00
2018-02-12T16:50:57.387Z,6.65
2018-02-12T16:53:24.968Z,8.25
2018-02-12T16:55:52.465Z,9.70
2018-02-12T16:58:19.963Z,11.02
2018-02-12T17:00:47.434Z,8.90
2018-02-12T17:03:14.922Z,8.65
2018-02-12T17:05:42.404Z,10.05
2018-02-12T17:08:09.900Z,10.05
2018-02-12T17:10:37.776Z,8.25
2018-02-12T17:13:05.673Z,9.40
2018-02-12T17:15:33.151Z,8.60
2018-02-12T17:18:00.639Z,8.77
2018-02-12T17:20:28.120Z,9.80
2018-02-12T17:22:55.615Z,7.80
2018-02-12T17:25:23.101Z,7.30
2018-02-12T17:27:50.600Z,8.48
2018-02-12T17:30:18.080Z,7.90
2018-02-12T17:32:45.587Z,8.85
2018-02-12T17:35:13.071Z,8.93
2018-02-12T17:37:40.565Z,9.95
2018-02-12T17:40:08.573Z,11.32
2018-02-12T17:42:36.100Z,11.12
2018-02-12T17:45:03.584Z,12.95
2018-02-12T17:47:31.146Z,12.00
2018-02-12T17:49:58.619Z,11.73
2018-02-12T17:52:26.140Z,11.55
2018-02-12T17:54:53.668Z,10.90
2018-02-12T17:57:21.648Z,8.48
2018-02-12T17:59:49.550Z,8.95
2018-02-12T18:02:17.049Z,10.40
2018-02-12T18:04:44.538Z,9.50
2018-02-12T18:07:12.036Z,9.90
2018-02-12T18:09:39.519Z,9.50
2018-02-12T18:12:07.423Z,14.35
2018-02-12T18:14:34.908Z,11.48
2018-02-12T18:17:02.408Z,10.15
2018-02-12T18:19:29.894Z,10.13
2018-02-12T18:21:57.396Z,9.20
2018-02-12T18:24:24.999Z,9.80
2018-02-12T18:26:52.483Z,11.65
2018-02-12T18:29:19.983Z,8.43
2018-02-12T18:31:47.468Z,8.85
2018-02-12T18:34:15.440Z,8.90
2018-02-12T18:36:43.319Z,8.02
2018-02-12T18:39:10.817Z,8.00
2018-02-12T18:41:38.290Z,8.43
2018-02-12T18:44:05.791Z,7.93
2018-02-12T18:46:33.275Z,10.50
2018-02-12T18:49:00.868Z,9.70
2018-02-12T18:51:28.352Z,9.85
2018-02-12T18:53:56.234Z,9.05
2018-02-12T18:56:24.107Z,12.20
2018-02-12T18:58:52.079Z,12.23
2018-02-12T19:01:19.610Z,9.80
2018-02-12T19:03:47.108Z,9.95
2018-02-12T19:06:14.583Z,9.00
2018-02-12T19:08:42.079Z,9.32
2018-02-12T19:11:09.591Z,11.12
2018-02-12T19:13:37.100Z,9.05
2018-02-12T19:16:04.707Z,9.20
2018-02-12T19:18:32.212Z,10.43
2018-02-12T19:20:59.688Z,10.73
2018-02-12T19:23:27.183Z,10.98
2018-02-12T19:25:54.764Z,14.60
2018-02-12T19:28:22.263Z,13.65
2018-02-12T19:30:49.758Z,14.15
2018-02-12T19:33:17.260Z,11.43
2018-02-12T19:35:44.739Z,10.63
2018-02-12T19:38:12.230Z,9.90
2018-02-12T19:40:40.109Z,8.95
2018-02-12T19:43:08.000Z,9.93
2018-02-12T19:45:35.484Z,10.20
2018-02-12T19:48:02.963Z,10.50
2018-02-12T19:50:30.464Z,11.10
2018-02-12T19:52:57.947Z,13.80
2018-02-12T19:55:25.516Z,13.15
2018-02-12T19:57:53.003Z,8.90
2018-02-12T20:00:20.992Z,7.80
2018-02-12T20:02:48.859Z,7.32
2018-02-12T20:05:16.389Z,11.05
2018-02-12T20:07:43.868Z,12.23
2018-02-12T20:10:11.399Z,9.52
2018-02-12T20:12:38.946Z,7.60
2018-02-12T20:15:06.444Z,7.60
2018-02-12T20:17:33.994Z,12.23
2018-02-12T20:20:01.986Z,12.95
2018-02-12T20:22:29.858Z,12.90
2018-02-12T20:24:57.767Z,14.15
2018-02-12T20:27:25.252Z,15.80
2018-02-12T20:29:52.785Z,15.73
2018-02-12T20:32:20.752Z,15.57
2018-02-12T20:34:48.318Z,14.30
2018-02-12T20:37:15.801Z,9.23
2018-02-12T20:39:43.712Z,13.02
2018-02-12T20:42:11.191Z,14.35
2018-02-12T20:44:38.699Z,14.63
2018-02-12T20:47:06.179Z,13.05
2018-02-12T20:49:33.690Z,12.30
2018-02-12T20:52:01.176Z,10.60
2018-02-12T20:54:28.672Z,10.10
2018-02-12T20:56:56.152Z,9.45
2018-02-12T20:59:23.644Z,9.27
2018-02-12T21:01:51.540Z,11.65
2018-02-12T21:04:19.438Z,10.63
2018-02-12T21:06:46.923Z,10.82
2018-02-12T21:09:14.475Z,11.60
2018-02-12T21:11:42.004Z,10.88
2018-02-12T21:14:09.509Z,11.70
2018-02-12T21:16:37.060Z,12.63
2018-02-12T21:19:04.548Z,12.37
2018-02-12T21:21:32.048Z,13.10
2018-02-12T21:23:59.535Z,12.48
2018-02-12T21:26:27.032Z,12.50
2018-02-12T21:28:54.515Z,13.15
2018-02-12T21:31:22.408Z,12.43
2018-02-12T21:33:50.282Z,12.95
2018-02-12T21:36:18.188Z,12.93
2018-02-12T21:38:45.681Z,12.95
2018-02-12T21:41:13.184Z,13.88
2018-02-12T21:43:40.663Z,12.95
2018-02-12T21:46:08.634Z,13.80
2018-02-12T21:48:36.206Z,14.10
2018-02-12T21:51:03.712Z,14.10
2018-02-12T21:53:31.252Z,11.82
2018-02-12T21:55:58.760Z,12.88
2018-02-12T21:58:26.244Z,11.52
2018-02-12T22:00:53.739Z,12.90
2018-02-12T22:03:21.228Z,12.63
2018-02-12T22:05:48.742Z,13.95
2018-02-12T22:08:16.232Z,11.45
2018-02-12T22:10:43.737Z,12.55
2018-02-12T22:13:11.315Z,12.13
2018-02-12T22:15:38.835Z,13.55
2018-02-12T22:18:06.331Z,12.05
2018-02-12T22:20:33.912Z,11.45
2018-02-12T22:23:01.395Z,12.02
2018-02-12T22:25:28.879Z,10.07
2018-02-12T22:27:56.447Z,11.55
2018-02-12T22:30:23.931Z,12.07
2018-02-12T22:32:52.029Z,11.05
2018-02-12T22:35:19.517Z,10.10
2018-02-12T22:37:47.020Z,10.27
2018-02-12T22:40:14.508Z,9.70
2018-02-12T22:42:42.084Z,10.68
2018-02-12T22:45:09.576Z,9.70
2018-02-12T22:47:37.471Z,9.85
2018-02-12T22:50:04.958Z,8.80
2018-02-12T22:52:32.451Z,9.52
2018-02-12T22:54:59.936Z,9.90
2018-02-12T22:57:27.426Z,8.45
2018-02-12T22:59:55.299Z,8.60
2018-02-12T23:02:22.805Z,8.88
2018-02-12T23:04:50.289Z,8.27
2018-02-12T23:07:17.788Z,8.82
2018-02-12T23:09:45.276Z,9.30
2018-02-12T23:12:12.783Z,8.45
2018-02-12T23:14:40.261Z,7.60
2018-02-12T23:17:20.684Z,7.43
2018-02-12T23:19:48.159Z,7.00
2018-02-12T23:22:15.654Z,6.80
2018-02-12T23:24:43.536Z,7.75
2018-02-12T23:27:11.422Z,9.02
2018-02-12T23:29:38.902Z,8.38
2018-02-12T23:32:06.444Z,7.20
2018-02-12T23:34:34.324Z,8.85
2018-02-12T23:37:02.308Z,9.45
2018-02-12T23:39:29.770Z,8.88
2018-02-12T23:41:57.748Z,14.40
2018-02-12T23:44:25.635Z,9.10
2018-02-12T23:46:53.536Z,7.70
2018-02-12T23:49:21.020Z,10.52
2018-02-12T23:51:48.513Z,10.45
2018-02-12T23:54:25.803Z,11.02
2018-02-12T23:56:53.304Z,10.75
2018-02-12T23:59:20.796Z,13.38
